createdAt,value
2022-12-05T00:01:42.612Z,101065.00
2022-12-05T00:04:14.149Z,101059.75
2022-12-05T00:06:42.232Z,101066.44
2022-12-05T00:09:13.415Z,101057.25
2022-12-05T00:11:43.049Z,101073.06
2022-12-05T00:14:10.213Z,101071.25
2022-12-05T00:16:38.766Z,101071.97
2022-12-05T00:19:07.769Z,101065.16
2022-12-05T00:21:36.413Z,101074.50
2022-12-05T00:24:04.958Z,101068.50
2022-12-05T00:26:32.113Z,101066.59
2022-12-05T00:28:59.450Z,101065.63
2022-12-05T00:31:29.065Z,101060.13
2022-12-05T00:33:56.951Z,101053.88
2022-12-05T00:36:26.686Z,101053.75
2022-12-05T00:38:54.006Z,101028.72
2022-12-05T00:41:23.833Z,101043.31
2022-12-05T00:43:53.423Z,101045.25
2022-12-05T00:46:25.199Z,101048.59
2022-12-05T00:48:56.318Z,101049.31
2022-12-05T00:51:30.163Z,101051.34
2022-12-05T00:54:02.263Z,101053.16
2022-12-05T00:56:30.172Z,101042.94
2022-12-05T00:58:57.700Z,101040.56
2022-12-05T01:01:36.908Z,101043.66
2022-12-05T01:04:12.563Z,101046.19
2022-12-05T01:06:39.951Z,101043.81
2022-12-05T01:09:07.490Z,101045.59
2022-12-05T01:11:41.396Z,101034.56
2022-12-05T01:14:10.190Z,101080.13
2022-12-05T01:16:38.946Z,101084.56
2022-12-05T01:19:09.099Z,101146.78
2022-12-05T01:21:35.977Z,101150.50
2022-12-05T01:24:02.833Z,101146.06
2022-12-05T01:26:29.640Z,101147.63
2022-12-05T01:28:57.676Z,101157.22
2022-12-05T01:31:33.763Z,101159.16
2022-12-05T01:34:02.041Z,101169.81
2022-12-05T01:36:29.347Z,101170.03
2022-12-05T01:39:01.151Z,101164.44
2022-12-05T01:41:30.878Z,101166.44
2022-12-05T01:44:00.714Z,101160.44
2022-12-05T01:46:32.786Z,101169.94
2022-12-05T01:49:03.095Z,101175.56
2022-12-05T01:51:30.646Z,101177.47
2022-12-05T01:53:57.409Z,101174.03
2022-12-05T01:56:26.410Z,101167.41
2022-12-05T01:58:56.368Z,101169.09
2022-12-05T02:01:23.254Z,101164.66
2022-12-05T02:03:52.360Z,101164.44
2022-12-05T02:06:25.332Z,101170.78
2022-12-05T02:08:53.083Z,101171.63
2022-12-05T02:11:20.759Z,101172.59
2022-12-05T02:14:02.577Z,101175.47
2022-12-05T02:16:45.160Z,101169.72
2022-12-05T02:19:53.381Z,101177.25
2022-12-05T02:22:48.046Z,101178.22
2022-12-05T02:25:29.293Z,101182.03
2022-12-05T02:28:28.484Z,101185.63
2022-12-05T02:31:05.122Z,101187.44
2022-12-05T02:33:40.951Z,101171.63
2022-12-05T02:36:08.855Z,101174.97
2022-12-05T02:38:58.980Z,101178.34
2022-12-05T02:41:33.869Z,101178.22
2022-12-05T02:44:10.186Z,101182.75
2022-12-05T02:46:40.654Z,101180.75
2022-12-05T02:49:12.203Z,101178.09
2022-12-05T02:51:43.350Z,101183.88
2022-12-05T02:54:17.977Z,101183.97
2022-12-05T02:56:46.253Z,101185.53
2022-12-05T02:59:16.064Z,101190.81
2022-12-05T03:01:50.300Z,101191.88
2022-12-05T03:04:17.891Z,101195.47
2022-12-05T03:06:52.206Z,101196.19
2022-12-05T03:09:26.126Z,101198.03
2022-12-05T03:12:00.943Z,101195.63
2022-12-05T03:14:35.384Z,101188.41
2022-12-05T03:17:05.857Z,101189.47
2022-12-05T03:19:55.574Z,101188.66
2022-12-05T03:22:28.197Z,101192.97
2022-12-05T03:24:57.138Z,101190.94
2022-12-05T03:27:31.171Z,101190.44
2022-12-05T03:30:10.747Z,101190.34
2022-12-05T03:32:42.236Z,101195.63
2022-12-05T03:35:18.343Z,101207.94
2022-12-05T03:37:50.641Z,101205.94
2022-12-05T03:40:24.987Z,101204.13
2022-12-05T03:43:27.168Z,101201.63
2022-12-05T03:46:06.136Z,101199.06
2022-12-05T03:48:38.097Z,101204.13
2022-12-05T03:51:07.965Z,101211.06
2022-12-05T03:53:43.041Z,101190.69
2022-12-05T03:56:13.297Z,101157.47
2022-12-05T03:58:44.968Z,101159.97
2022-12-05T04:01:13.499Z,101156.28
2022-12-05T04:03:59.984Z,101161.94
2022-12-05T04:06:30.986Z,101158.19
2022-12-05T04:09:11.209Z,101167.06
2022-12-05T04:11:47.562Z,101167.94
2022-12-05T04:14:18.346Z,101152.69
2022-12-05T04:17:06.205Z,101149.81
2022-12-05T04:20:11.752Z,101156.41
2022-12-05T04:22:39.452Z,101146.44
2022-12-05T04:25:27.852Z,101152.91
2022-12-05T04:27:57.501Z,101139.00
2022-12-05T04:30:26.688Z,101126.91
2022-12-05T04:33:00.830Z,101133.13
2022-12-05T04:35:33.942Z,101131.94
2022-12-05T04:38:05.419Z,101125.81
2022-12-05T04:40:39.436Z,101128.19
2022-12-05T04:43:07.162Z,101123.75
2022-12-05T04:45:38.786Z,101124.97
2022-12-05T04:48:12.201Z,101130.38
2022-12-05T04:50:39.819Z,101118.38
2022-12-05T04:53:09.816Z,101123.41
2022-12-05T04:55:37.124Z,101120.06
2022-12-05T04:58:13.021Z,101124.13
2022-12-05T05:01:06.748Z,101113.47
2022-12-05T05:03:38.890Z,101120.06
2022-12-05T05:06:06.226Z,101121.00
2022-12-05T05:08:33.004Z,101122.69
2022-12-05T05:11:16.602Z,101125.31
2022-12-05T05:13:43.445Z,101128.94
2022-12-05T05:16:24.131Z,101128.94
2022-12-05T05:18:51.891Z,101133.38
2022-12-05T05:21:24.664Z,101135.16
2022-12-05T05:23:52.444Z,101142.50
2022-12-05T05:26:21.426Z,101135.78
2022-12-05T05:28:48.418Z,101138.28
2022-12-05T05:31:15.812Z,101135.41
2022-12-05T05:33:42.578Z,101139.97
2022-12-05T05:36:11.808Z,101141.78
2022-12-05T05:38:51.181Z,101144.28
2022-12-05T05:41:38.836Z,101148.25
2022-12-05T05:44:05.734Z,101141.88
2022-12-05T05:46:34.502Z,101152.19
2022-12-05T05:49:01.271Z,101157.00
2022-12-05T05:51:35.361Z,101151.47
2022-12-05T05:54:02.253Z,101152.19
2022-12-05T05:56:29.626Z,101155.31
2022-12-05T05:59:01.468Z,101160.00
2022-12-05T06:01:30.009Z,101163.72
2022-12-05T06:03:56.934Z,101161.06
2022-12-05T06:06:24.121Z,101164.56
2022-12-05T06:08:50.781Z,101160.84
2022-12-05T06:11:25.456Z,101165.38
2022-12-05T06:13:55.646Z,101164.31
2022-12-05T06:16:28.728Z,101163.47
2022-12-05T06:19:04.424Z,101166.25
2022-12-05T06:21:39.825Z,101173.69
2022-12-05T06:24:06.937Z,101169.84
2022-12-05T06:26:33.616Z,101168.03
2022-12-05T06:29:00.331Z,101170.81
2022-12-05T06:31:34.764Z,101174.16
2022-12-05T06:34:02.977Z,101174.66
2022-12-05T06:36:30.341Z,101173.31
2022-12-05T06:39:05.872Z,101179.78
2022-12-05T06:41:33.650Z,101175.22
2022-12-05T06:44:02.180Z,101166.00
2022-12-05T06:46:33.320Z,101174.03
2022-12-05T06:48:59.954Z,101180.16
2022-12-05T06:51:28.010Z,101176.19
2022-12-05T06:53:55.911Z,101171.38
2022-12-05T06:56:32.464Z,101178.81
2022-12-05T06:58:59.168Z,101176.91
2022-12-05T07:01:42.234Z,101182.28
2022-12-05T07:04:25.923Z,101187.31
2022-12-05T07:06:56.448Z,101176.19
2022-12-05T07:09:50.568Z,101182.44
2022-12-05T07:12:19.160Z,101186.13
2022-12-05T07:14:48.154Z,101195.84
2022-12-05T07:17:20.930Z,101196.44
2022-12-05T07:19:49.365Z,101204.47
2022-12-05T07:22:17.650Z,101195.13
2022-12-05T07:24:50.504Z,101192.25
2022-12-05T07:27:21.833Z,101196.91
2022-12-05T07:29:52.059Z,101191.63
2022-12-05T07:32:21.382Z,101186.09
2022-12-05T07:34:52.228Z,101192.31
2022-12-05T07:37:21.769Z,101196.78
2022-12-05T07:39:48.616Z,101196.06
2022-12-05T07:42:20.599Z,101195.19
2022-12-05T07:44:50.188Z,101196.72
2022-12-05T07:47:24.295Z,101200.72
2022-12-05T07:49:50.955Z,101204.16
2022-12-05T07:52:17.565Z,101197.44
2022-12-05T07:54:45.448Z,101210.13
2022-12-05T07:57:37.328Z,101210.38
2022-12-05T08:00:04.659Z,101205.72
2022-12-05T08:02:40.888Z,101205.72
2022-12-05T08:05:10.363Z,101211.94
2022-12-05T08:07:37.144Z,101204.88
2022-12-05T08:10:04.762Z,101210.59
2022-12-05T08:12:40.348Z,101211.69
2022-12-05T08:15:07.888Z,101218.41
2022-12-05T08:17:34.627Z,101223.69
2022-12-05T08:20:10.043Z,101219.38
2022-12-05T08:22:36.725Z,101220.56
2022-12-05T08:25:03.430Z,101214.28
2022-12-05T08:27:30.242Z,101218.16
2022-12-05T08:29:57.077Z,101213.69
2022-12-05T08:32:27.209Z,101218.69
2022-12-05T08:34:53.912Z,101218.19
2022-12-05T08:37:20.597Z,101221.16
2022-12-05T08:39:48.399Z,101221.63
2022-12-05T08:42:15.588Z,101226.06
2022-12-05T08:44:53.090Z,101229.66
2022-12-05T08:47:19.751Z,101228.19
2022-12-05T08:49:48.888Z,101232.06
2022-12-05T08:52:23.085Z,101233.25
2022-12-05T08:54:52.157Z,101232.28
2022-12-05T08:57:28.324Z,101234.06
2022-12-05T08:59:54.898Z,101228.56
2022-12-05T09:02:21.615Z,101231.56
2022-12-05T09:04:54.002Z,101226.78
2022-12-05T09:07:20.961Z,101233.50
2022-12-05T09:09:48.976Z,101233.84
2022-12-05T09:12:15.657Z,101229.16
2022-12-05T09:15:02.623Z,101236.91
2022-12-05T09:17:32.453Z,101237.06
2022-12-05T09:19:59.336Z,101228.69
2022-12-05T09:22:26.142Z,101234.69
2022-12-05T09:24:52.783Z,101236.25
2022-12-05T09:27:19.415Z,101235.91
2022-12-05T09:29:53.806Z,101232.78
2022-12-05T09:32:20.556Z,101238.78
2022-12-05T09:34:50.394Z,101235.66
2022-12-05T09:37:42.703Z,101233.50
2022-12-05T09:40:16.494Z,101242.59
2022-12-05T09:43:18.460Z,101242.97
2022-12-05T09:45:54.272Z,101249.19
2022-12-05T09:48:21.589Z,101251.97
2022-12-05T09:50:58.772Z,101247.09
2022-12-05T09:53:35.040Z,101249.81
2022-12-05T09:56:29.181Z,101253.47
2022-12-05T09:59:05.737Z,101254.81
2022-12-05T10:01:57.347Z,101238.41
2022-12-05T10:05:06.982Z,101249.41
2022-12-05T10:08:09.127Z,101243.81
2022-12-05T10:10:54.537Z,101240.59
2022-12-05T10:13:36.587Z,101244.47
2022-12-05T10:16:07.704Z,101234.53
2022-12-05T10:18:42.024Z,101238.13
2022-12-05T10:21:08.890Z,101236.59
2022-12-05T10:23:57.080Z,101238.97
2022-12-05T10:26:36.646Z,101233.81
2022-12-05T10:29:08.338Z,101239.81
2022-12-05T10:31:37.763Z,101239.72
2022-12-05T10:34:12.375Z,101246.19
2022-12-05T10:36:39.031Z,101238.41
2022-12-05T10:39:11.266Z,101246.22
2022-12-05T10:41:38.399Z,101240.09
2022-12-05T10:44:05.294Z,101241.28
2022-12-05T10:46:32.041Z,101238.28
2022-12-05T10:49:03.730Z,101230.13
2022-12-05T10:51:35.801Z,101233.34
2022-12-05T10:54:39.266Z,101229.50
2022-12-05T10:57:25.242Z,101228.31
2022-12-05T10:59:52.933Z,101233.25
2022-12-05T11:02:20.654Z,101229.03
2022-12-05T11:05:12.576Z,101226.38
2022-12-05T11:07:49.567Z,101223.81
2022-12-05T11:10:27.178Z,101226.84
2022-12-05T11:12:58.551Z,101222.63
2022-12-05T11:15:30.510Z,101220.94
2022-12-05T11:18:11.878Z,101212.59
2022-12-05T11:20:41.950Z,101216.19
2022-12-05T11:23:24.881Z,101217.88
2022-12-05T11:26:05.587Z,101216.19
2022-12-05T11:28:45.059Z,101222.44
2022-12-05T11:31:40.084Z,101217.97
2022-12-05T11:34:40.104Z,101220.00
2022-12-05T11:37:25.552Z,101215.09
2022-12-05T11:39:52.516Z,101209.25
2022-12-05T11:42:45.619Z,101214.28
2022-12-05T11:45:30.550Z,101211.75
2022-12-05T11:48:14.165Z,101209.34
2022-12-05T11:50:47.349Z,101208.28
2022-12-05T11:53:45.016Z,101204.94
2022-12-05T11:56:37.330Z,101216.06
2022-12-05T11:59:16.003Z,101209.34
2022-12-05T12:01:58.751Z,101204.78
2022-12-05T12:04:37.112Z,101210.28
2022-12-05T12:07:26.172Z,101203.56
2022-12-05T12:10:05.819Z,101200.69
2022-12-05T12:12:58.214Z,101205.09
2022-12-05T12:15:43.304Z,101206.78
2022-12-05T12:18:19.299Z,101204.03
2022-12-05T12:21:31.654Z,101202.22
2022-12-05T12:24:27.771Z,101198.16
2022-12-05T12:27:36.016Z,101199.22
2022-12-05T12:30:15.015Z,101199.09
2022-12-05T12:32:57.721Z,101193.50
2022-12-05T12:35:51.098Z,101196.94
2022-12-05T12:38:39.569Z,101190.38
2022-12-05T12:41:29.047Z,101199.69
2022-12-05T12:44:10.778Z,101192.84
2022-12-05T12:47:25.454Z,101197.88
2022-12-05T12:50:36.493Z,101182.28
2022-12-05T12:53:28.845Z,101183.50
2022-12-05T12:56:14.423Z,101176.94
2022-12-05T12:58:55.055Z,101179.34
2022-12-05T13:01:44.348Z,101178.13
2022-12-05T13:04:15.808Z,101175.63
2022-12-05T13:06:55.749Z,101175.75
2022-12-05T13:09:55.621Z,101178.41
2022-12-05T13:12:44.162Z,101179.91
2022-12-05T13:15:42.773Z,101174.66
2022-12-05T13:18:16.330Z,101172.47
2022-12-05T13:20:58.626Z,101171.28
2022-12-05T13:23:49.357Z,101168.31
2022-12-05T13:26:34.430Z,101172.00
2022-12-05T13:29:04.877Z,101165.19
2022-12-05T13:36:25.585Z,101174.16
2022-12-05T13:39:37.618Z,101169.13
2022-12-05T13:42:16.461Z,101178.69
2022-12-05T13:44:53.082Z,101181.09
2022-12-05T13:47:32.559Z,101181.97
2022-12-05T13:50:20.440Z,101178.84
2022-12-05T13:52:58.426Z,101179.09
2022-12-05T13:55:33.953Z,101183.50
2022-12-05T13:58:23.983Z,101183.88
2022-12-05T14:00:51.778Z,101187.09
2022-12-05T14:03:38.373Z,101184.38
2022-12-05T14:06:06.667Z,101183.28
2022-12-05T14:08:35.791Z,101184.00
2022-12-05T14:11:04.038Z,101180.88
2022-12-05T14:13:32.205Z,101183.88
2022-12-05T14:16:24.104Z,101186.38
2022-12-05T14:19:03.044Z,101182.91
2022-12-05T14:21:39.470Z,101181.00
2022-12-05T14:24:37.966Z,101183.97
2022-12-05T14:27:27.206Z,101179.88
2022-12-05T14:29:59.971Z,101178.84
2022-12-05T14:32:32.827Z,101179.06
2022-12-05T14:35:05.652Z,101175.81
2022-12-05T14:37:38.437Z,101177.47
2022-12-05T14:40:35.287Z,101171.03
2022-12-05T14:43:20.653Z,101178.94
2022-12-05T14:45:53.340Z,101164.31
2022-12-05T14:48:19.907Z,101172.09
2022-12-05T14:50:51.834Z,101178.34
2022-12-05T14:53:21.513Z,101176.03
2022-12-05T14:55:50.708Z,101172.78
2022-12-05T14:58:21.359Z,101175.31
2022-12-05T15:00:56.298Z,101165.38
2022-12-05T15:03:27.761Z,101171.81
2022-12-05T15:05:58.861Z,101179.94
2022-12-05T15:08:34.785Z,101172.16
2022-12-05T15:11:01.471Z,101175.63
2022-12-05T15:13:29.515Z,101171.94
2022-12-05T15:16:14.729Z,101169.53
2022-12-05T15:18:49.745Z,101174.91
2022-12-05T15:21:22.384Z,101186.81
2022-12-05T15:23:54.740Z,101184.16
2022-12-05T15:26:50.386Z,101186.69
2022-12-05T15:29:26.496Z,101193.13
2022-12-05T15:31:57.084Z,101201.25
2022-12-05T15:34:44.773Z,101205.56
2022-12-05T15:37:17.308Z,101198.53
2022-12-05T15:40:00.383Z,101207.25
2022-12-05T15:42:32.165Z,101213.88
2022-12-05T15:45:14.518Z,101214.22
2022-12-05T15:47:49.287Z,101205.47
2022-12-05T15:50:34.129Z,101213.97
2022-12-05T15:53:05.179Z,101208.84
2022-12-05T15:55:49.991Z,101215.78
2022-12-05T15:58:28.462Z,101213.88
2022-12-05T16:00:59.982Z,101218.44
2022-12-05T16:03:58.626Z,101214.84
2022-12-05T16:06:25.732Z,101209.66
2022-12-05T16:08:52.982Z,101214.13
2022-12-05T16:11:19.900Z,101205.34
2022-12-05T16:13:58.711Z,101213.25
2022-12-05T16:16:28.610Z,101217.56
2022-12-05T16:19:00.197Z,101215.78
2022-12-05T16:21:38.872Z,101217.38
2022-12-05T16:24:21.513Z,101220.09
2022-12-05T16:27:07.305Z,101213.88
2022-12-05T16:29:35.022Z,101209.34
2022-12-05T16:32:04.138Z,101223.47
2022-12-05T16:34:33.200Z,101222.66
2022-12-05T16:37:00.105Z,101225.47
2022-12-05T16:39:28.230Z,101222.25
2022-12-05T16:41:55.308Z,101221.16
2022-12-05T16:44:28.369Z,101225.38
2022-12-05T16:46:56.394Z,101223.47
2022-12-05T16:49:40.055Z,101224.44
2022-12-05T16:52:15.124Z,101215.56
2022-12-05T16:54:42.666Z,101222.53
2022-12-05T16:57:12.569Z,101226.97
2022-12-05T16:59:42.165Z,101223.38
2022-12-05T17:02:18.259Z,101222.03
2022-12-05T17:04:46.915Z,101222.84
2022-12-05T17:07:13.662Z,101218.31
2022-12-05T17:09:40.286Z,101225.28
2022-12-05T17:12:18.784Z,101234.97
2022-12-05T17:14:47.205Z,101227.06
2022-12-05T17:17:15.453Z,101232.09
2022-12-05T17:19:42.137Z,101234.75
2022-12-05T17:22:08.750Z,101237.38
2022-12-05T17:24:35.797Z,101231.50
2022-12-05T17:27:02.646Z,101227.78
2022-12-05T17:29:35.267Z,101229.47
2022-12-05T17:32:02.486Z,101231.16
2022-12-05T17:34:29.663Z,101232.00
2022-12-05T17:36:56.214Z,101231.16
2022-12-05T17:39:28.152Z,101238.22
2022-12-05T17:41:55.326Z,101231.38
2022-12-05T17:44:22.283Z,101241.81
2022-12-05T17:46:49.341Z,101234.50
2022-12-05T17:49:17.982Z,101239.78
2022-12-05T17:52:13.492Z,101244.22
2022-12-05T17:54:31.390Z,101237.16
2022-12-05T17:56:58.005Z,101245.91
2022-12-05T17:59:24.621Z,101243.50
2022-12-05T18:01:51.164Z,101243.59
2022-12-05T18:04:22.684Z,101243.38
2022-12-05T18:06:49.873Z,101245.41
2022-12-05T18:09:16.438Z,101242.78
2022-12-05T18:11:43.036Z,101251.41
2022-12-05T18:14:10.412Z,101246.25
2022-12-05T18:16:37.126Z,101245.28
2022-12-05T18:19:03.978Z,101242.97
2022-12-05T18:21:30.627Z,101257.97
2022-12-05T18:23:57.455Z,101260.69
2022-12-05T18:26:24.135Z,101254.59
2022-12-05T18:28:53.725Z,101254.59
2022-12-05T18:31:20.370Z,101253.25
2022-12-05T18:33:46.983Z,101252.41
2022-12-05T18:36:17.313Z,101249.56
2022-12-05T18:38:52.958Z,101256.50
2022-12-05T18:41:20.495Z,101253.13
2022-12-05T18:43:47.297Z,101257.47
2022-12-05T18:46:13.978Z,101259.25
2022-12-05T18:48:45.911Z,101263.78
2022-12-05T18:51:16.388Z,101262.00
2022-12-05T18:53:43.567Z,101273.28
2022-12-05T18:56:27.195Z,101276.97
2022-12-05T18:58:59.577Z,101279.50
2022-12-05T19:01:27.840Z,101281.28
2022-12-05T19:03:57.035Z,101280.22
2022-12-05T19:06:25.927Z,101277.59
2022-12-05T19:09:01.014Z,101278.53
2022-12-05T19:11:28.332Z,101277.47
2022-12-05T19:14:00.003Z,101278.53
2022-12-05T19:16:27.667Z,101275.78
2022-12-05T19:18:56.196Z,101273.28
2022-12-05T19:21:27.486Z,101270.84
2022-12-05T19:23:54.487Z,101272.53
2022-12-05T19:26:21.827Z,101275.91
2022-12-05T19:28:49.108Z,101271.38
2022-12-05T19:31:18.579Z,101276.31
2022-12-05T19:33:48.339Z,101276.19
2022-12-05T19:36:26.944Z,101283.38
2022-12-05T19:38:54.748Z,101290.41
2022-12-05T19:41:26.861Z,101284.09
2022-12-05T19:43:54.457Z,101292.72
2022-12-05T19:46:26.795Z,101288.41
2022-12-05T19:48:56.212Z,101285.03
2022-12-05T19:51:23.161Z,101286.63
2022-12-05T19:53:49.968Z,101283.66
2022-12-05T19:56:19.230Z,101276.81
2022-12-05T19:58:46.535Z,101282.31
2022-12-05T20:01:33.270Z,101276.31
2022-12-05T20:04:02.575Z,101281.38
2022-12-05T20:06:34.953Z,101280.41
2022-12-05T20:09:01.914Z,101269.88
2022-12-05T20:11:29.300Z,101274.91
2022-12-05T20:13:57.756Z,101275.63
2022-12-05T20:16:27.043Z,101281.00
2022-12-05T20:18:58.104Z,101281.22
2022-12-05T20:21:26.439Z,101270.81
2022-12-05T20:23:54.474Z,101274.28
2022-12-05T20:26:26.473Z,101267.31
2022-12-05T20:28:53.134Z,101270.59
2022-12-05T20:31:21.883Z,101269.41
2022-12-05T20:33:53.163Z,101277.41
2022-12-05T20:36:22.066Z,101269.50
2022-12-05T20:38:48.874Z,101273.97
2022-12-05T20:41:17.621Z,101270.38
2022-12-05T20:43:45.875Z,101264.47
2022-12-05T20:46:17.811Z,101267.72
2022-12-05T20:48:45.866Z,101267.72
2022-12-05T20:51:14.865Z,101275.41
2022-12-05T20:53:43.453Z,101273.91
2022-12-05T20:56:15.342Z,101273.88
2022-12-05T20:58:44.598Z,101275.56
2022-12-05T21:01:12.088Z,101278.31
2022-12-05T21:03:46.853Z,101278.28
2022-12-05T21:06:16.086Z,101270.13
2022-12-05T21:08:43.076Z,101270.47
2022-12-05T21:11:11.209Z,101273.31
2022-12-05T21:13:39.386Z,101267.00
2022-12-05T21:16:13.026Z,101266.16
2022-12-05T21:18:40.541Z,101268.47
2022-12-05T21:21:10.481Z,101268.31
2022-12-05T21:23:37.067Z,101271.00
2022-12-05T21:26:06.641Z,101263.19
2022-12-05T21:28:34.069Z,101271.31
2022-12-05T21:31:29.900Z,101272.16
2022-12-05T21:33:59.252Z,101267.72
2022-12-05T21:36:28.113Z,101261.97
2022-12-05T21:38:56.584Z,101259.19
2022-12-05T21:41:24.884Z,101265.66
2022-12-05T21:43:55.004Z,101260.03
2022-12-05T21:46:22.931Z,101260.41
2022-12-05T21:48:50.106Z,101250.97
2022-12-05T21:51:17.311Z,101255.59
2022-12-05T21:53:44.192Z,101256.56
2022-12-05T21:56:15.566Z,101262.78
2022-12-05T21:58:43.787Z,101257.41
2022-12-05T22:01:12.304Z,101255.72
2022-12-05T22:03:39.028Z,101256.28
2022-12-05T22:06:07.639Z,101262.59
2022-12-05T22:08:34.815Z,101263.31
2022-12-05T22:11:08.509Z,101264.91
2022-12-05T22:13:35.782Z,101262.38
2022-12-05T22:16:03.002Z,101267.03
2022-12-05T22:18:30.262Z,101261.16
2022-12-05T22:21:02.116Z,101262.00
2022-12-05T22:23:29.079Z,101251.78
2022-12-05T22:26:00.076Z,101253.25
2022-12-05T22:28:27.987Z,101241.66
2022-12-05T22:30:59.142Z,101247.00
2022-12-05T22:33:26.007Z,101249.56
2022-12-05T22:35:53.861Z,101246.78
2022-12-05T22:38:20.503Z,101253.13
2022-12-05T22:40:53.315Z,101249.06
2022-12-05T22:43:19.938Z,101244.50
2022-12-05T22:45:46.568Z,101235.66
2022-12-05T22:48:13.276Z,101242.59
2022-12-05T22:50:46.445Z,101248.59
2022-12-05T22:53:13.355Z,101237.94
2022-12-05T22:55:40.178Z,101240.91
2022-12-05T22:58:06.885Z,101237.94
2022-12-05T23:00:37.149Z,101230.03
2022-12-05T23:03:06.009Z,101226.88
2022-12-05T23:05:32.921Z,101225.84
2022-12-05T23:07:59.637Z,101224.03
2022-12-05T23:10:26.376Z,101227.50
2022-12-05T23:12:52.925Z,101224.38
2022-12-05T23:15:21.945Z,101225.34
2022-12-05T23:17:48.997Z,101224.47
2022-12-05T23:20:16.139Z,101222.56
2022-12-05T23:22:42.767Z,101219.84
2022-12-05T23:25:09.747Z,101216.47
2022-12-05T23:27:36.376Z,101220.06
2022-12-05T23:30:03.255Z,101225.19
2022-12-05T23:32:29.923Z,101216.97
2022-12-05T23:34:56.496Z,101216.97
2022-12-05T23:37:23.109Z,101215.06
2022-12-05T23:39:49.690Z,101219.38
2022-12-05T23:42:16.505Z,101218.16
2022-12-05T23:44:43.089Z,101228.19
2022-12-05T23:47:09.738Z,101221.75
2022-12-05T23:49:36.357Z,101219.09
2022-12-05T23:52:02.998Z,101217.53
2022-12-05T23:54:29.560Z,101217.53
2022-12-05T23:56:56.182Z,101218.03
2022-12-05T23:59:22.904Z,101211.69
